sensor_id;sensor_type;location;lat;lon;timestamp;P1;durP1;ratioP1;P2;durP2;ratioP2
76423;SDS011;65257;52.104;4.268;2023-07-09T00:00:17;18.33;;;12.40;;
76423;SDS011;65257;52.104;4.268;2023-07-09T00:02:45;22.55;;;13.57;;
76423;SDS011;65257;52.104;4.268;2023-07-09T00:05:13;18.95;;;13.10;;
76423;SDS011;65257;52.104;4.268;2023-07-09T00:07:40;18.80;;;13.18;;
76423;SDS011;65257;52.104;4.268;2023-07-09T00:10:19;15.82;;;13.02;;
76423;SDS011;65257;52.104;4.268;2023-07-09T00:12:46;15.93;;;12.38;;
76423;SDS011;65257;52.104;4.268;2023-07-09T00:15:16;17.08;;;13.32;;
76423;SDS011;65257;52.104;4.268;2023-07-09T00:17:44;18.25;;;13.52;;
76423;SDS011;65257;52.104;4.268;2023-07-09T00:20:14;17.15;;;12.68;;
76423;SDS011;65257;52.104;4.268;2023-07-09T00:22:42;17.73;;;13.95;;
76423;SDS011;65257;52.104;4.268;2023-07-09T00:25:13;18.38;;;12.07;;
76423;SDS011;65257;52.104;4.268;2023-07-09T00:27:41;15.70;;;12.50;;
76423;SDS011;65257;52.104;4.268;2023-07-09T00:30:19;18.17;;;13.52;;
76423;SDS011;65257;52.104;4.268;2023-07-09T00:32:50;20.30;;;13.13;;
76423;SDS011;65257;52.104;4.268;2023-07-09T00:35:18;18.17;;;12.82;;
76423;SDS011;65257;52.104;4.268;2023-07-09T00:37:44;19.08;;;14.23;;
76423;SDS011;65257;52.104;4.268;2023-07-09T00:40:15;19.13;;;13.85;;
76423;SDS011;65257;52.104;4.268;2023-07-09T00:42:51;19.65;;;13.77;;
76423;SDS011;65257;52.104;4.268;2023-07-09T00:45:20;18.30;;;13.43;;
76423;SDS011;65257;52.104;4.268;2023-07-09T00:48:02;19.23;;;13.45;;
76423;SDS011;65257;52.104;4.268;2023-07-09T00:50:39;18.77;;;13.57;;
76423;SDS011;65257;52.104;4.268;2023-07-09T00:53:29;19.02;;;12.80;;
76423;SDS011;65257;52.104;4.268;2023-07-09T00:56:02;21.63;;;12.05;;
76423;SDS011;65257;52.104;4.268;2023-07-09T00:58:36;16.15;;;11.82;;
76423;SDS011;65257;52.104;4.268;2023-07-09T01:01:05;17.27;;;11.63;;
76423;SDS011;65257;52.104;4.268;2023-07-09T01:03:42;18.17;;;12.90;;
76423;SDS011;65257;52.104;4.268;2023-07-09T01:06:18;17.20;;;12.50;;
76423;SDS011;65257;52.104;4.268;2023-07-09T01:08:55;16.55;;;12.32;;
76423;SDS011;65257;52.104;4.268;2023-07-09T01:11:21;20.35;;;13.05;;
76423;SDS011;65257;52.104;4.268;2023-07-09T01:13:52;16.90;;;12.63;;
76423;SDS011;65257;52.104;4.268;2023-07-09T01:16:23;16.38;;;12.40;;
76423;SDS011;65257;52.104;4.268;2023-07-09T01:18:52;18.90;;;14.07;;
76423;SDS011;65257;52.104;4.268;2023-07-09T01:21:18;19.52;;;13.13;;
76423;SDS011;65257;52.104;4.268;2023-07-09T01:23:47;20.75;;;13.27;;
76423;SDS011;65257;52.104;4.268;2023-07-09T01:26:20;19.15;;;13.52;;
76423;SDS011;65257;52.104;4.268;2023-07-09T01:28:57;17.23;;;13.05;;
76423;SDS011;65257;52.104;4.268;2023-07-09T01:31:22;20.40;;;14.27;;
76423;SDS011;65257;52.104;4.268;2023-07-09T01:33:48;22.15;;;14.65;;
76423;SDS011;65257;52.104;4.268;2023-07-09T01:36:16;19.63;;;14.88;;
76423;SDS011;65257;52.104;4.268;2023-07-09T01:38:48;19.70;;;14.48;;
76423;SDS011;65257;52.104;4.268;2023-07-09T01:41:14;19.38;;;14.70;;
76423;SDS011;65257;52.104;4.268;2023-07-09T01:43:47;19.98;;;14.73;;
76423;SDS011;65257;52.104;4.268;2023-07-09T01:46:12;19.02;;;13.75;;
76423;SDS011;65257;52.104;4.268;2023-07-09T01:48:42;21.38;;;14.38;;
76423;SDS011;65257;52.104;4.268;2023-07-09T01:51:11;22.20;;;14.95;;
76423;SDS011;65257;52.104;4.268;2023-07-09T01:53:41;23.65;;;15.50;;
76423;SDS011;65257;52.104;4.268;2023-07-09T01:56:11;25.02;;;16.33;;
76423;SDS011;65257;52.104;4.268;2023-07-09T01:58:37;22.88;;;16.52;;
76423;SDS011;65257;52.104;4.268;2023-07-09T02:01:12;24.38;;;16.05;;
76423;SDS011;65257;52.104;4.268;2023-07-09T02:03:40;20.23;;;15.75;;
76423;SDS011;65257;52.104;4.268;2023-07-09T02:06:05;23.42;;;16.65;;
76423;SDS011;65257;52.104;4.268;2023-07-09T02:08:34;21.60;;;16.77;;
76423;SDS011;65257;52.104;4.268;2023-07-09T02:11:01;25.77;;;16.88;;
76423;SDS011;65257;52.104;4.268;2023-07-09T02:13:30;20.35;;;15.30;;
76423;SDS011;65257;52.104;4.268;2023-07-09T02:16:02;22.73;;;16.52;;
76423;SDS011;65257;52.104;4.268;2023-07-09T02:18:29;22.08;;;17.00;;
76423;SDS011;65257;52.104;4.268;2023-07-09T02:20:55;26.33;;;15.85;;
76423;SDS011;65257;52.104;4.268;2023-07-09T02:23:26;19.80;;;15.50;;
76423;SDS011;65257;52.104;4.268;2023-07-09T02:25:53;22.90;;;15.38;;
76423;SDS011;65257;52.104;4.268;2023-07-09T02:28:18;25.45;;;16.58;;
76423;SDS011;65257;52.104;4.268;2023-07-09T02:31:08;25.15;;;17.00;;
76423;SDS011;65257;52.104;4.268;2023-07-09T02:33:33;22.00;;;16.60;;
76423;SDS011;65257;52.104;4.268;2023-07-09T02:36:01;22.80;;;16.90;;
76423;SDS011;65257;52.104;4.268;2023-07-09T02:38:30;23.83;;;16.77;;
76423;SDS011;65257;52.104;4.268;2023-07-09T02:40:56;23.42;;;17.80;;
76423;SDS011;65257;52.104;4.268;2023-07-09T02:43:24;26.05;;;17.70;;
76423;SDS011;65257;52.104;4.268;2023-07-09T02:45:51;26.35;;;17.50;;
76423;SDS011;65257;52.104;4.268;2023-07-09T02:48:16;29.35;;;18.13;;
76423;SDS011;65257;52.104;4.268;2023-07-09T02:50:42;25.90;;;16.40;;
76423;SDS011;65257;52.104;4.268;2023-07-09T02:53:11;26.60;;;17.58;;
76423;SDS011;65257;52.104;4.268;2023-07-09T02:55:39;23.83;;;16.75;;
76423;SDS011;65257;52.104;4.268;2023-07-09T02:58:04;24.40;;;18.02;;
76423;SDS011;65257;52.104;4.268;2023-07-09T03:00:31;23.65;;;16.67;;
76423;SDS011;65257;52.104;4.268;2023-07-09T03:02:57;25.10;;;18.85;;
76423;SDS011;65257;52.104;4.268;2023-07-09T03:05:25;27.17;;;18.40;;
76423;SDS011;65257;52.104;4.268;2023-07-09T03:07:52;29.90;;;19.25;;
76423;SDS011;65257;52.104;4.268;2023-07-09T03:10:21;24.70;;;19.52;;
76423;SDS011;65257;52.104;4.268;2023-07-09T03:12:46;29.95;;;24.05;;
76423;SDS011;65257;52.104;4.268;2023-07-09T03:15:16;29.95;;;23.75;;
76423;SDS011;65257;52.104;4.268;2023-07-09T03:17:42;29.88;;;24.70;;
76423;SDS011;65257;52.104;4.268;2023-07-09T03:20:11;37.95;;;28.13;;
76423;SDS011;65257;52.104;4.268;2023-07-09T03:22:38;35.80;;;28.92;;
76423;SDS011;65257;52.104;4.268;2023-07-09T03:25:06;39.53;;;31.15;;
76423;SDS011;65257;52.104;4.268;2023-07-09T03:27:32;39.63;;;33.05;;
76423;SDS011;65257;52.104;4.268;2023-07-09T03:29:57;39.97;;;32.20;;
76423;SDS011;65257;52.104;4.268;2023-07-09T03:32:26;39.20;;;32.40;;
76423;SDS011;65257;52.104;4.268;2023-07-09T03:34:51;43.72;;;34.88;;
76423;SDS011;65257;52.104;4.268;2023-07-09T03:37:20;47.30;;;34.95;;
76423;SDS011;65257;52.104;4.268;2023-07-09T03:39:57;48.38;;;39.03;;
76423;SDS011;65257;52.104;4.268;2023-07-09T03:42:29;46.53;;;39.95;;
76423;SDS011;65257;52.104;4.268;2023-07-09T03:44:54;48.40;;;40.47;;
76423;SDS011;65257;52.104;4.268;2023-07-09T03:47:28;49.22;;;41.00;;
76423;SDS011;65257;52.104;4.268;2023-07-09T03:49:54;52.72;;;40.35;;
76423;SDS011;65257;52.104;4.268;2023-07-09T03:52:19;51.55;;;40.65;;
76423;SDS011;65257;52.104;4.268;2023-07-09T03:54:49;50.70;;;40.22;;
76423;SDS011;65257;52.104;4.268;2023-07-09T03:57:18;48.47;;;38.53;;
76423;SDS011;65257;52.104;4.268;2023-07-09T03:59:44;46.55;;;41.03;;
76423;SDS011;65257;52.104;4.268;2023-07-09T04:02:10;51.53;;;42.70;;
76423;SDS011;65257;52.104;4.268;2023-07-09T04:04:36;48.70;;;39.38;;
76423;SDS011;65257;52.104;4.268;2023-07-09T04:07:03;49.17;;;39.05;;
76423;SDS011;65257;52.104;4.268;2023-07-09T04:09:28;40.53;;;33.30;;
76423;SDS011;65257;52.104;4.268;2023-07-09T04:11:54;44.90;;;35.38;;
76423;SDS011;65257;52.104;4.268;2023-07-09T04:14:24;38.13;;;32.63;;
76423;SDS011;65257;52.104;4.268;2023-07-09T04:16:50;39.55;;;32.47;;
76423;SDS011;65257;52.104;4.268;2023-07-09T04:19:17;39.55;;;31.45;;
76423;SDS011;65257;52.104;4.268;2023-07-09T04:21:45;38.00;;;31.48;;
76423;SDS011;65257;52.104;4.268;2023-07-09T04:24:31;38.17;;;31.58;;
76423;SDS011;65257;52.104;4.268;2023-07-09T04:26:58;39.45;;;32.05;;
76423;SDS011;65257;52.104;4.268;2023-07-09T04:29:28;41.75;;;33.33;;
76423;SDS011;65257;52.104;4.268;2023-07-09T04:32:00;41.35;;;33.55;;
76423;SDS011;65257;52.104;4.268;2023-07-09T04:34:30;39.50;;;31.05;;
76423;SDS011;65257;52.104;4.268;2023-07-09T04:36:58;42.92;;;34.80;;
76423;SDS011;65257;52.104;4.268;2023-07-09T04:39:33;35.28;;;29.63;;
76423;SDS011;65257;52.104;4.268;2023-07-09T04:42:01;33.88;;;27.05;;
76423;SDS011;65257;52.104;4.268;2023-07-09T04:44:29;37.13;;;30.58;;
76423;SDS011;65257;52.104;4.268;2023-07-09T04:46:56;33.42;;;27.02;;
76423;SDS011;65257;52.104;4.268;2023-07-09T04:49:22;36.55;;;28.67;;
76423;SDS011;65257;52.104;4.268;2023-07-09T04:51:49;33.20;;;27.27;;
76423;SDS011;65257;52.104;4.268;2023-07-09T04:54:14;39.67;;;32.28;;
76423;SDS011;65257;52.104;4.268;2023-07-09T04:56:40;37.15;;;30.20;;
76423;SDS011;65257;52.104;4.268;2023-07-09T04:59:12;36.92;;;30.65;;
76423;SDS011;65257;52.104;4.268;2023-07-09T05:01:38;37.38;;;28.95;;
76423;SDS011;65257;52.104;4.268;2023-07-09T05:04:25;43.85;;;35.83;;
76423;SDS011;65257;52.104;4.268;2023-07-09T05:06:58;39.53;;;33.30;;
76423;SDS011;65257;52.104;4.268;2023-07-09T05:09:24;37.38;;;30.45;;
76423;SDS011;65257;52.104;4.268;2023-07-09T05:11:54;39.40;;;34.08;;
76423;SDS011;65257;52.104;4.268;2023-07-09T05:14:23;36.63;;;28.77;;
76423;SDS011;65257;52.104;4.268;2023-07-09T05:16:51;30.63;;;25.80;;
76423;SDS011;65257;52.104;4.268;2023-07-09T05:19:18;36.55;;;30.98;;
76423;SDS011;65257;52.104;4.268;2023-07-09T05:21:43;30.88;;;26.73;;
76423;SDS011;65257;52.104;4.268;2023-07-09T05:24:10;31.85;;;26.42;;
76423;SDS011;65257;52.104;4.268;2023-07-09T05:26:39;31.88;;;27.13;;
76423;SDS011;65257;52.104;4.268;2023-07-09T05:29:05;30.88;;;25.92;;
76423;SDS011;65257;52.104;4.268;2023-07-09T05:31:34;28.52;;;24.08;;
76423;SDS011;65257;52.104;4.268;2023-07-09T05:34:05;30.05;;;24.08;;
76423;SDS011;65257;52.104;4.268;2023-07-09T05:36:35;28.35;;;22.52;;
76423;SDS011;65257;52.104;4.268;2023-07-09T05:39:00;28.40;;;24.10;;
76423;SDS011;65257;52.104;4.268;2023-07-09T05:41:26;29.35;;;23.77;;
76423;SDS011;65257;52.104;4.268;2023-07-09T05:43:51;29.30;;;24.30;;
76423;SDS011;65257;52.104;4.268;2023-07-09T05:46:27;28.05;;;23.35;;
76423;SDS011;65257;52.104;4.268;2023-07-09T05:48:52;27.48;;;22.77;;
76423;SDS011;65257;52.104;4.268;2023-07-09T05:51:18;28.23;;;23.05;;
76423;SDS011;65257;52.104;4.268;2023-07-09T05:53:46;26.92;;;19.33;;
76423;SDS011;65257;52.104;4.268;2023-07-09T05:56:11;19.48;;;14.85;;
76423;SDS011;65257;52.104;4.268;2023-07-09T05:58:44;22.63;;;15.13;;
76423;SDS011;65257;52.104;4.268;2023-07-09T06:01:13;22.13;;;17.42;;
76423;SDS011;65257;52.104;4.268;2023-07-09T06:03:41;22.63;;;16.17;;
76423;SDS011;65257;52.104;4.268;2023-07-09T06:06:08;21.42;;;16.48;;
76423;SDS011;65257;52.104;4.268;2023-07-09T06:08:35;22.13;;;17.02;;
76423;SDS011;65257;52.104;4.268;2023-07-09T06:11:02;23.05;;;16.00;;
76423;SDS011;65257;52.104;4.268;2023-07-09T06:13:29;16.85;;;13.23;;
76423;SDS011;65257;52.104;4.268;2023-07-09T06:15:59;17.40;;;13.07;;
76423;SDS011;65257;52.104;4.268;2023-07-09T06:18:26;17.38;;;13.23;;
76423;SDS011;65257;52.104;4.268;2023-07-09T06:20:58;19.10;;;12.90;;
76423;SDS011;65257;52.104;4.268;2023-07-09T06:24:02;16.60;;;11.85;;
76423;SDS011;65257;52.104;4.268;2023-07-09T06:26:50;17.27;;;13.43;;
76423;SDS011;65257;52.104;4.268;2023-07-09T06:29:26;20.10;;;13.60;;
76423;SDS011;65257;52.104;4.268;2023-07-09T06:31:59;17.20;;;12.63;;
76423;SDS011;65257;52.104;4.268;2023-07-09T06:34:24;15.85;;;12.95;;
76423;SDS011;65257;52.104;4.268;2023-07-09T06:36:50;18.67;;;13.43;;
76423;SDS011;65257;52.104;4.268;2023-07-09T06:39:15;18.50;;;13.75;;
76423;SDS011;65257;52.104;4.268;2023-07-09T06:41:45;16.27;;;12.07;;
76423;SDS011;65257;52.104;4.268;2023-07-09T06:44:11;18.92;;;13.65;;
76423;SDS011;65257;52.104;4.268;2023-07-09T06:46:42;20.30;;;14.60;;
76423;SDS011;65257;52.104;4.268;2023-07-09T06:49:10;17.30;;;13.07;;
76423;SDS011;65257;52.104;4.268;2023-07-09T06:51:36;19.27;;;14.68;;
76423;SDS011;65257;52.104;4.268;2023-07-09T06:54:04;19.40;;;14.13;;
76423;SDS011;65257;52.104;4.268;2023-07-09T06:56:32;18.65;;;14.48;;
76423;SDS011;65257;52.104;4.268;2023-07-09T06:59:01;20.05;;;15.07;;
76423;SDS011;65257;52.104;4.268;2023-07-09T07:01:27;21.65;;;15.68;;
76423;SDS011;65257;52.104;4.268;2023-07-09T07:03:56;22.75;;;17.52;;
76423;SDS011;65257;52.104;4.268;2023-07-09T07:06:23;19.98;;;15.35;;
76423;SDS011;65257;52.104;4.268;2023-07-09T07:08:51;16.85;;;13.20;;
76423;SDS011;65257;52.104;4.268;2023-07-09T07:11:36;16.98;;;11.95;;
76423;SDS011;65257;52.104;4.268;2023-07-09T07:14:13;20.10;;;12.18;;
76423;SDS011;65257;52.104;4.268;2023-07-09T07:16:39;15.20;;;11.23;;
76423;SDS011;65257;52.104;4.268;2023-07-09T07:19:05;16.02;;;10.93;;
76423;SDS011;65257;52.104;4.268;2023-07-09T07:21:34;17.25;;;11.07;;
76423;SDS011;65257;52.104;4.268;2023-07-09T07:23:59;16.38;;;11.27;;
76423;SDS011;65257;52.104;4.268;2023-07-09T07:26:32;15.18;;;11.23;;
76423;SDS011;65257;52.104;4.268;2023-07-09T07:28:58;16.92;;;11.40;;
76423;SDS011;65257;52.104;4.268;2023-07-09T07:31:33;15.70;;;11.68;;
76423;SDS011;65257;52.104;4.268;2023-07-09T07:34:00;17.13;;;11.05;;
76423;SDS011;65257;52.104;4.268;2023-07-09T07:36:29;17.27;;;11.27;;
76423;SDS011;65257;52.104;4.268;2023-07-09T07:38:56;17.15;;;12.60;;
76423;SDS011;65257;52.104;4.268;2023-07-09T07:41:22;17.85;;;12.38;;
76423;SDS011;65257;52.104;4.268;2023-07-09T07:43:48;15.05;;;11.68;;
76423;SDS011;65257;52.104;4.268;2023-07-09T07:46:13;16.60;;;12.25;;
76423;SDS011;65257;52.104;4.268;2023-07-09T07:48:39;14.63;;;11.02;;
76423;SDS011;65257;52.104;4.268;2023-07-09T07:51:05;17.48;;;11.32;;
76423;SDS011;65257;52.104;4.268;2023-07-09T07:53:32;15.45;;;10.38;;
76423;SDS011;65257;52.104;4.268;2023-07-09T07:55:59;14.52;;;11.05;;
76423;SDS011;65257;52.104;4.268;2023-07-09T07:58:28;25.92;;;11.40;;
76423;SDS011;65257;52.104;4.268;2023-07-09T08:00:57;15.60;;;9.82;;
76423;SDS011;65257;52.104;4.268;2023-07-09T08:03:29;16.92;;;10.95;;
76423;SDS011;65257;52.104;4.268;2023-07-09T08:05:54;13.32;;;10.52;;
76423;SDS011;65257;52.104;4.268;2023-07-09T08:08:21;15.60;;;10.90;;
76423;SDS011;65257;52.104;4.268;2023-07-09T08:10:48;15.90;;;10.40;;
76423;SDS011;65257;52.104;4.268;2023-07-09T08:13:16;13.30;;;9.68;;
76423;SDS011;65257;52.104;4.268;2023-07-09T08:15:48;13.38;;;9.95;;
76423;SDS011;65257;52.104;4.268;2023-07-09T08:18:18;10.77;;;7.82;;
76423;SDS011;65257;52.104;4.268;2023-07-09T08:20:44;15.00;;;8.98;;
76423;SDS011;65257;52.104;4.268;2023-07-09T08:23:10;16.23;;;8.77;;
76423;SDS011;65257;52.104;4.268;2023-07-09T08:25:39;14.55;;;8.63;;
76423;SDS011;65257;52.104;4.268;2023-07-09T08:28:08;14.98;;;10.23;;
76423;SDS011;65257;52.104;4.268;2023-07-09T08:30:35;14.63;;;10.70;;
76423;SDS011;65257;52.104;4.268;2023-07-09T08:33:01;14.50;;;10.63;;
76423;SDS011;65257;52.104;4.268;2023-07-09T08:35:26;16.30;;;11.40;;
76423;SDS011;65257;52.104;4.268;2023-07-09T08:37:56;17.08;;;11.25;;
76423;SDS011;65257;52.104;4.268;2023-07-09T08:40:26;19.60;;;12.65;;
76423;SDS011;65257;52.104;4.268;2023-07-09T08:42:53;17.15;;;11.88;;
76423;SDS011;65257;52.104;4.268;2023-07-09T08:48:04;17.73;;;13.30;;
76423;SDS011;65257;52.104;4.268;2023-07-09T08:50:55;18.65;;;13.48;;
76423;SDS011;65257;52.104;4.268;2023-07-09T08:53:38;16.85;;;12.90;;
76423;SDS011;65257;52.104;4.268;2023-07-09T08:56:10;14.43;;;11.10;;
76423;SDS011;65257;52.104;4.268;2023-07-09T08:58:39;16.27;;;11.93;;
76423;SDS011;65257;52.104;4.268;2023-07-09T09:01:06;16.23;;;11.57;;
76423;SDS011;65257;52.104;4.268;2023-07-09T09:03:49;15.40;;;11.38;;
76423;SDS011;65257;52.104;4.268;2023-07-09T09:06:38;13.90;;;10.23;;
76423;SDS011;65257;52.104;4.268;2023-07-09T09:11:44;11.23;;;7.70;;
76423;SDS011;65257;52.104;4.268;2023-07-09T09:14:24;10.18;;;6.60;;
76423;SDS011;65257;52.104;4.268;2023-07-09T09:16:51;9.38;;;6.25;;
76423;SDS011;65257;52.104;4.268;2023-07-09T09:19:33;12.85;;;6.50;;
76423;SDS011;65257;52.104;4.268;2023-07-09T09:22:10;11.05;;;5.85;;
76423;SDS011;65257;52.104;4.268;2023-07-09T09:24:58;9.85;;;5.63;;
76423;SDS011;65257;52.104;4.268;2023-07-09T09:27:46;10.00;;;4.63;;
76423;SDS011;65257;52.104;4.268;2023-07-09T09:30:16;7.93;;;4.03;;
76423;SDS011;65257;52.104;4.268;2023-07-09T09:32:53;9.30;;;4.88;;
76423;SDS011;65257;52.104;4.268;2023-07-09T09:35:28;14.48;;;5.43;;
76423;SDS011;65257;52.104;4.268;2023-07-09T09:38:12;6.53;;;3.75;;
76423;SDS011;65257;52.104;4.268;2023-07-09T09:40:42;8.82;;;3.40;;
76423;SDS011;65257;52.104;4.268;2023-07-09T09:43:19;8.02;;;3.85;;
76423;SDS011;65257;52.104;4.268;2023-07-09T09:46:05;9.48;;;4.38;;
76423;SDS011;65257;52.104;4.268;2023-07-09T09:48:32;8.82;;;4.70;;
76423;SDS011;65257;52.104;4.268;2023-07-09T09:51:03;7.18;;;4.40;;
76423;SDS011;65257;52.104;4.268;2023-07-09T09:53:30;8.23;;;4.32;;
76423;SDS011;65257;52.104;4.268;2023-07-09T09:56:05;10.57;;;3.22;;
76423;SDS011;65257;52.104;4.268;2023-07-09T09:58:39;6.75;;;3.45;;
76423;SDS011;65257;52.104;4.268;2023-07-09T10:01:15;9.75;;;3.60;;
76423;SDS011;65257;52.104;4.268;2023-07-09T10:03:46;7.15;;;3.40;;
76423;SDS011;65257;52.104;4.268;2023-07-09T10:06:43;6.30;;;3.17;;
76423;SDS011;65257;52.104;4.268;2023-07-09T10:09:33;8.07;;;4.32;;
76423;SDS011;65257;52.104;4.268;2023-07-09T10:15:51;6.78;;;2.70;;
76423;SDS011;65257;52.104;4.268;2023-07-09T10:23:57;8.18;;;3.40;;
76423;SDS011;65257;52.104;4.268;2023-07-09T10:26:51;12.48;;;5.28;;
76423;SDS011;65257;52.104;4.268;2023-07-09T10:29:55;9.93;;;5.85;;
76423;SDS011;65257;52.104;4.268;2023-07-09T10:35:41;7.72;;;4.85;;
76423;SDS011;65257;52.104;4.268;2023-07-09T10:39:01;9.70;;;4.93;;
76423;SDS011;65257;52.104;4.268;2023-07-09T10:41:25;9.35;;;5.32;;
76423;SDS011;65257;52.104;4.268;2023-07-09T10:46:34;9.10;;;6.03;;
76423;SDS011;65257;52.104;4.268;2023-07-09T10:49:03;10.32;;;5.53;;
76423;SDS011;65257;52.104;4.268;2023-07-09T10:51:46;10.38;;;5.32;;
76423;SDS011;65257;52.104;4.268;2023-07-09T10:54:32;10.88;;;5.47;;
76423;SDS011;65257;52.104;4.268;2023-07-09T10:57:44;10.18;;;5.63;;
76423;SDS011;65257;52.104;4.268;2023-07-09T11:00:36;10.68;;;6.00;;
76423;SDS011;65257;52.104;4.268;2023-07-09T11:05:57;7.70;;;4.35;;
76423;SDS011;65257;52.104;4.268;2023-07-09T11:08:36;9.73;;;5.43;;
76423;SDS011;65257;52.104;4.268;2023-07-09T11:11:12;11.02;;;5.50;;
76423;SDS011;65257;52.104;4.268;2023-07-09T11:14:00;7.28;;;5.07;;
76423;SDS011;65257;52.104;4.268;2023-07-09T11:16:36;13.95;;;5.07;;
76423;SDS011;65257;52.104;4.268;2023-07-09T11:19:17;9.90;;;4.85;;
76423;SDS011;65257;52.104;4.268;2023-07-09T11:25:26;10.43;;;5.93;;
76423;SDS011;65257;52.104;4.268;2023-07-09T11:30:46;9.20;;;5.50;;
76423;SDS011;65257;52.104;4.268;2023-07-09T11:36:26;10.70;;;5.93;;
76423;SDS011;65257;52.104;4.268;2023-07-09T11:38:54;14.43;;;5.75;;
76423;SDS011;65257;52.104;4.268;2023-07-09T11:41:37;9.35;;;5.88;;
76423;SDS011;65257;52.104;4.268;2023-07-09T11:47:01;13.65;;;6.82;;
76423;SDS011;65257;52.104;4.268;2023-07-09T11:55:48;30.40;;;7.72;;
76423;SDS011;65257;52.104;4.268;2023-07-09T11:58:15;20.23;;;7.22;;
76423;SDS011;65257;52.104;4.268;2023-07-09T12:00:44;16.45;;;6.88;;
76423;SDS011;65257;52.104;4.268;2023-07-09T12:06:00;20.83;;;6.03;;
76423;SDS011;65257;52.104;4.268;2023-07-09T12:08:39;20.40;;;6.20;;
76423;SDS011;65257;52.104;4.268;2023-07-09T12:11:26;25.50;;;5.45;;
76423;SDS011;65257;52.104;4.268;2023-07-09T12:14:03;21.13;;;5.22;;
76423;SDS011;65257;52.104;4.268;2023-07-09T12:16:38;19.52;;;5.18;;
76423;SDS011;65257;52.104;4.268;2023-07-09T12:19:15;23.77;;;6.20;;
76423;SDS011;65257;52.104;4.268;2023-07-09T12:21:45;18.30;;;5.78;;
76423;SDS011;65257;52.104;4.268;2023-07-09T12:24:35;22.20;;;7.28;;
76423;SDS011;65257;52.104;4.268;2023-07-09T12:27:15;22.15;;;7.95;;
76423;SDS011;65257;52.104;4.268;2023-07-09T12:29:54;23.65;;;7.47;;
76423;SDS011;65257;52.104;4.268;2023-07-09T12:32:24;18.63;;;8.80;;
76423;SDS011;65257;52.104;4.268;2023-07-09T12:35:12;22.00;;;8.90;;
76423;SDS011;65257;52.104;4.268;2023-07-09T12:37:41;13.80;;;8.07;;
76423;SDS011;65257;52.104;4.268;2023-07-09T12:40:11;25.17;;;8.75;;
76423;SDS011;65257;52.104;4.268;2023-07-09T12:42:53;20.55;;;8.05;;
76423;SDS011;65257;52.104;4.268;2023-07-09T12:47:50;16.73;;;7.78;;
76423;SDS011;65257;52.104;4.268;2023-07-09T12:50:25;19.75;;;8.25;;
76423;SDS011;65257;52.104;4.268;2023-07-09T12:53:20;18.45;;;8.05;;
76423;SDS011;65257;52.104;4.268;2023-07-09T12:55:48;20.67;;;8.52;;
76423;SDS011;65257;52.104;4.268;2023-07-09T12:58:25;21.30;;;8.00;;
76423;SDS011;65257;52.104;4.268;2023-07-09T13:01:15;20.40;;;9.00;;
76423;SDS011;65257;52.104;4.268;2023-07-09T13:03:51;14.57;;;8.48;;
76423;SDS011;65257;52.104;4.268;2023-07-09T13:06:30;21.50;;;9.98;;
76423;SDS011;65257;52.104;4.268;2023-07-09T13:09:05;16.77;;;9.00;;
76423;SDS011;65257;52.104;4.268;2023-07-09T13:11:48;19.33;;;9.40;;
76423;SDS011;65257;52.104;4.268;2023-07-09T13:14:18;20.23;;;10.05;;
76423;SDS011;65257;52.104;4.268;2023-07-09T13:17:01;21.58;;;9.98;;
76423;SDS011;65257;52.104;4.268;2023-07-09T13:19:29;15.90;;;9.48;;
76423;SDS011;65257;52.104;4.268;2023-07-09T13:22:01;23.08;;;10.35;;
76423;SDS011;65257;52.104;4.268;2023-07-09T13:24:31;22.58;;;10.27;;
76423;SDS011;65257;52.104;4.268;2023-07-09T13:27:03;17.73;;;10.07;;
76423;SDS011;65257;52.104;4.268;2023-07-09T13:29:33;22.60;;;10.13;;
76423;SDS011;65257;52.104;4.268;2023-07-09T13:32:07;18.25;;;9.27;;
76423;SDS011;65257;52.104;4.268;2023-07-09T13:34:38;17.02;;;8.63;;
76423;SDS011;65257;52.104;4.268;2023-07-09T13:37:04;12.48;;;7.50;;
76423;SDS011;65257;52.104;4.268;2023-07-09T13:39:33;13.50;;;7.55;;
76423;SDS011;65257;52.104;4.268;2023-07-09T13:42:02;13.23;;;6.35;;
76423;SDS011;65257;52.104;4.268;2023-07-09T13:44:29;13.35;;;5.55;;
76423;SDS011;65257;52.104;4.268;2023-07-09T13:47:01;11.80;;;6.07;;
76423;SDS011;65257;52.104;4.268;2023-07-09T13:49:27;11.23;;;5.50;;
76423;SDS011;65257;52.104;4.268;2023-07-09T13:51:57;11.65;;;5.50;;
76423;SDS011;65257;52.104;4.268;2023-07-09T13:54:29;14.68;;;4.95;;
76423;SDS011;65257;52.104;4.268;2023-07-09T13:57:06;9.80;;;3.90;;
76423;SDS011;65257;52.104;4.268;2023-07-09T13:59:37;9.75;;;4.72;;
76423;SDS011;65257;52.104;4.268;2023-07-09T14:02:23;15.18;;;5.22;;
76423;SDS011;65257;52.104;4.268;2023-07-09T14:05:05;14.77;;;4.80;;
76423;SDS011;65257;52.104;4.268;2023-07-09T14:07:33;12.13;;;4.88;;
76423;SDS011;65257;52.104;4.268;2023-07-09T14:10:04;9.20;;;4.75;;
76423;SDS011;65257;52.104;4.268;2023-07-09T14:12:31;12.25;;;4.72;;
76423;SDS011;65257;52.104;4.268;2023-07-09T14:15:01;11.20;;;5.60;;
76423;SDS011;65257;52.104;4.268;2023-07-09T14:17:35;7.80;;;4.80;;
76423;SDS011;65257;52.104;4.268;2023-07-09T14:20:07;9.50;;;4.97;;
76423;SDS011;65257;52.104;4.268;2023-07-09T14:22:39;11.88;;;4.63;;
76423;SDS011;65257;52.104;4.268;2023-07-09T14:25:29;9.77;;;4.55;;
76423;SDS011;65257;52.104;4.268;2023-07-09T14:27:55;8.98;;;4.95;;
76423;SDS011;65257;52.104;4.268;2023-07-09T14:30:24;11.40;;;5.03;;
76423;SDS011;65257;52.104;4.268;2023-07-09T14:32:55;11.23;;;4.32;;
76423;SDS011;65257;52.104;4.268;2023-07-09T14:35:23;6.97;;;4.28;;
76423;SDS011;65257;52.104;4.268;2023-07-09T14:37:54;9.27;;;5.03;;
76423;SDS011;65257;52.104;4.268;2023-07-09T14:40:20;10.68;;;4.68;;
76423;SDS011;65257;52.104;4.268;2023-07-09T14:42:50;7.20;;;4.32;;
76423;SDS011;65257;52.104;4.268;2023-07-09T14:48:01;9.48;;;3.70;;
76423;SDS011;65257;52.104;4.268;2023-07-09T14:50:27;9.52;;;4.20;;
76423;SDS011;65257;52.104;4.268;2023-07-09T14:52:53;9.60;;;4.45;;
76423;SDS011;65257;52.104;4.268;2023-07-09T14:55:20;11.73;;;5.25;;
76423;SDS011;65257;52.104;4.268;2023-07-09T14:57:46;9.02;;;4.03;;
76423;SDS011;65257;52.104;4.268;2023-07-09T15:00:17;9.88;;;4.25;;
76423;SDS011;65257;52.104;4.268;2023-07-09T15:02:44;10.85;;;5.43;;
76423;SDS011;65257;52.104;4.268;2023-07-09T15:05:14;9.52;;;5.47;;
76423;SDS011;65257;52.104;4.268;2023-07-09T15:07:42;10.43;;;5.50;;
76423;SDS011;65257;52.104;4.268;2023-07-09T15:10:17;8.65;;;4.57;;
76423;SDS011;65257;52.104;4.268;2023-07-09T15:12:47;10.68;;;3.85;;
76423;SDS011;65257;52.104;4.268;2023-07-09T15:15:21;12.10;;;4.47;;
76423;SDS011;65257;52.104;4.268;2023-07-09T15:17:53;11.63;;;4.50;;
76423;SDS011;65257;52.104;4.268;2023-07-09T15:20:22;11.25;;;6.35;;
76423;SDS011;65257;52.104;4.268;2023-07-09T15:22:56;12.45;;;5.00;;
76423;SDS011;65257;52.104;4.268;2023-07-09T15:25:28;10.43;;;4.70;;
76423;SDS011;65257;52.104;4.268;2023-07-09T15:27:56;11.13;;;4.97;;
76423;SDS011;65257;52.104;4.268;2023-07-09T15:30:26;12.73;;;5.18;;
76423;SDS011;65257;52.104;4.268;2023-07-09T15:32:58;12.48;;;4.45;;
76423;SDS011;65257;52.104;4.268;2023-07-09T15:35:26;10.57;;;4.57;;
76423;SDS011;65257;52.104;4.268;2023-07-09T15:38:31;11.68;;;4.82;;
76423;SDS011;65257;52.104;4.268;2023-07-09T15:41:00;8.10;;;4.40;;
76423;SDS011;65257;52.104;4.268;2023-07-09T15:43:46;12.52;;;5.70;;